Time;durP1;ratioP1;P1;durP2;ratioP2;P2;SDS_P1;SDS_P2;PMS_P1;PMS_P2;Temp;Humidity;BMP_temperature;BMP_pressure;BME280_temperature;BME280_humidity;BME280_pressure;Samples;Min_cycle;Max_cycle;Signal;HPM_P1;HPM_P2
2022/06/18 00:00:39;;;;;;;7.10;2.63;;;;;;;20.77;70.85;100521.91;4996042;28;20128;-72
2022/06/18 00:03:05;;;;;;;5.20;2.70;;;;;;;20.41;70.41;100476.56;5030986;28;20157;-67
2022/06/18 00:05:33;;;;;;;4.70;2.63;;;;;;;20.57;70.90;100492.22;5031161;28;20083;-67
2022/06/18 00:07:59;;;;;;;7.50;2.90;;;;;;;20.40;72.00;100522.00;5023082;28;20022;-65
2022/06/18 00:10:29;;;;;;;4.38;2.50;;;;;;;20.04;73.41;100529.91;5011056;28;20378;-68
2022/06/18 00:15:40;;;;;;;5.05;2.70;;;;;;;19.65;75.81;100529.03;5010877;28;19925;-68
2022/06/18 00:18:13;;;;;;;3.67;2.60;;;;;;;19.86;75.52;100522.06;5010419;28;20053;-70
2022/06/18 00:20:40;;;;;;;4.95;2.42;;;;;;;20.09;75.46;100510.69;5010660;28;20117;-69
2022/06/18 00:23:10;;;;;;;7.20;3.10;;;;;;;20.33;75.69;100504.53;5010515;28;20049;-66
2022/06/18 00:25:39;;;;;;;6.25;2.67;;;;;;;20.46;75.13;100472.16;5010431;28;20480;-67
2022/06/18 00:28:13;;;;;;;4.30;2.80;;;;;;;20.81;75.28;100499.13;5010031;28;20400;-70
2022/06/18 00:30:39;;;;;;;5.00;2.83;;;;;;;20.54;78.59;100493.09;5010330;28;20026;-68
2022/06/18 00:33:06;;;;;;;4.90;3.05;;;;;;;20.32;80.79;100498.41;5010277;28;20100;-69
2022/06/18 00:35:32;;;;;;;6.32;3.20;;;;;;;20.38;81.21;100478.31;5010291;28;20124;-69
2022/06/18 00:38:00;;;;;;;4.40;2.90;;;;;;;20.63;82.19;100502.69;5010217;28;20026;-68
2022/06/18 00:40:38;;;;;;;6.22;3.15;;;;;;;19.83;83.31;100475.78;5012580;28;20076;-70
2022/06/18 00:43:20;;;;;;;5.03;3.00;;;;;;;19.86;84.42;100507.25;5010708;28;20033;-67
2022/06/18 00:45:46;;;;;;;4.55;3.10;;;;;;;19.99;82.23;100505.47;4991718;28;20042;-66
2022/06/18 00:48:43;;;;;;;7.18;3.28;;;;;;;20.13;80.81;100505.44;5010131;28;20037;-69
2022/06/18 00:51:18;;;;;;;5.47;3.10;;;;;;;19.69;83.38;100496.72;5026053;28;20033;-65
2022/06/18 00:53:48;;;;;;;4.07;3.08;;;;;;;19.27;87.05;100508.06;5029947;28;20153;-67
2022/06/18 00:56:30;;;;;;;6.20;3.20;;;;;;;19.28;87.40;100526.38;5030062;28;20029;-65
2022/06/18 00:59:01;;;;;;;3.90;2.92;;;;;;;18.84;89.15;100508.75;5030371;28;20092;-66
2022/06/18 01:01:37;;;;;;;3.55;2.80;;;;;;;19.31;87.00;100512.41;5030164;28;20033;-67
2022/06/18 01:04:26;;;;;;;6.28;3.20;;;;;;;19.48;85.70;100512.44;5030066;28;20439;-66
2022/06/18 01:06:59;;;;;;;4.60;2.95;;;;;;;19.56;85.27;100516.81;5030275;28;20021;-66
2022/06/18 01:09:25;;;;;;;4.80;2.90;;;;;;;19.71;83.73;100515.94;5030218;28;20033;-69
2022/06/18 01:11:51;;;;;;;5.78;3.05;;;;;;;19.81;82.09;100489.72;5029882;28;20495;-69
2022/06/18 01:14:18;;;;;;;4.22;2.90;;;;;;;20.07;80.14;100515.94;4978785;28;20041;-70
2022/06/18 01:16:44;;;;;;;4.15;3.30;;;;;;;20.11;80.65;100509.84;5029610;28;20029;-68
2022/06/18 01:19:19;;;;;;;5.28;3.10;;;;;;;20.21;80.22;100489.69;5030261;28;20026;-70
2022/06/18 01:21:56;;;;;;;5.03;3.08;;;;;;;20.50;79.88;100509.75;5030268;28;20057;-70
2022/06/18 01:24:31;;;;;;;3.90;2.80;;;;;;;20.61;79.49;100510.56;5030050;28;20088;-69
2022/06/18 01:26:57;;;;;;;5.35;2.85;;;;;;;20.72;79.00;100496.56;5029737;28;20527;-69
2022/06/18 01:29:22;;;;;;;4.82;2.97;;;;;;;20.56;80.40;100487.84;5007810;28;20026;-68
2022/06/18 01:31:50;;;;;;;5.25;3.30;;;;;;;20.53;80.78;100486.97;5009302;28;20068;-68
2022/06/18 01:34:16;;;;;;;4.32;3.03;;;;;;;20.50;80.04;100480.88;5009723;28;20105;-69
2022/06/18 01:36:42;;;;;;;4.95;3.25;;;;;;;20.31;80.57;100482.69;5009300;28;20563;-67
2022/06/18 01:39:13;;;;;;;6.53;3.33;;;;;;;20.52;79.09;100482.63;5010563;28;20038;-68
2022/06/18 01:41:54;;;;;;;5.25;3.10;;;;;;;20.70;78.48;100483.44;4978472;28;20046;-68
2022/06/18 01:44:31;;;;;;;4.68;2.90;;;;;;;20.83;78.20;100487.75;5012989;28;20030;-69
2022/06/18 01:47:07;;;;;;;10.10;2.97;;;;;;;20.91;77.75;100474.59;5028450;28;20037;-68
2022/06/18 01:49:39;;;;;;;7.00;2.75;;;;;;;21.04;76.60;100479.78;5006586;28;20380;-69
2022/06/18 01:52:08;;;;;;;7.75;2.63;;;;;;;21.11;77.20;100479.72;5032974;28;20041;-66
2022/06/18 01:54:42;;;;;;;6.40;2.88;;;;;;;21.19;76.89;100471.78;5033870;28;20132;-68
2022/06/18 01:57:14;;;;;;;5.50;2.92;;;;;;;21.25;77.22;100491.91;5033901;28;20056;-66
2022/06/18 01:59:46;;;;;;;4.88;2.85;;;;;;;21.35;76.53;100480.44;5033689;28;20025;-67
2022/06/18 02:02:12;;;;;;;3.55;2.90;;;;;;;21.34;76.32;100476.91;5033108;28;20037;-66
2022/06/18 02:04:38;;;;;;;4.70;2.85;;;;;;;21.39;74.69;100476.91;5033173;28;20022;-66
2022/06/18 02:07:06;;;;;;;6.38;3.15;;;;;;;21.40;73.63;100467.28;5033326;28;20568;-71
2022/06/18 02:09:52;;;;;;;4.35;3.03;;;;;;;21.43;74.85;100475.13;5033128;28;20468;-69
2022/06/18 02:12:22;;;;;;;6.78;2.88;;;;;;;21.39;75.61;100479.53;5033133;28;20025;-69
2022/06/18 02:14:52;;;;;;;4.70;2.70;;;;;;;21.32;76.27;100475.19;5033314;28;20032;-70
2022/06/18 02:17:20;;;;;;;4.32;2.90;;;;;;;21.21;76.20;100477.91;5015501;28;20112;-68
2022/06/18 02:19:53;;;;;;;4.97;3.17;;;;;;;21.05;76.31;100471.88;5033406;28;20104;-69
2022/06/18 02:22:23;;;;;;;5.10;3.33;;;;;;;20.78;76.79;100467.66;5032977;28;20041;-68
2022/06/18 02:24:48;;;;;;;;;;;;;;;20.32;78.61;100471.31;5033420;28;20025;-68
2022/06/18 02:27:16;;;;;;;4.53;2.92;;;;;;;20.35;77.79;100458.22;5033092;28;19937;-68
2022/06/18 02:29:44;;;;;;;6.75;2.70;;;;;;;20.47;76.24;100468.66;5032492;28;20120;-69
2022/06/18 02:32:20;;;;;;;6.50;3.35;;;;;;;20.29;75.83;100432.88;5033060;28;20022;-66
2022/06/18 02:34:45;;;;;;;4.53;2.60;;;;;;;20.55;77.48;100472.97;5032968;28;20029;-68
2022/06/18 02:37:20;;;;;;;5.25;2.72;;;;;;;20.68;78.09;100469.44;5032850;28;20037;-67
2022/06/18 02:39:52;;;;;;;7.10;3.42;;;;;;;20.78;77.73;100463.28;5032914;28;20029;-69
2022/06/18 02:42:19;;;;;;;7.90;3.25;;;;;;;20.84;77.56;100468.50;5014012;28;21010;-71
2022/06/18 02:44:47;;;;;;;4.40;2.90;;;;;;;20.79;78.32;100467.66;5032879;28;20060;-66
2022/06/18 02:47:14;;;;;;;4.38;2.65;;;;;;;20.73;79.41;100469.44;5032026;28;20049;-69
2022/06/18 02:49:53;;;;;;;7.22;2.80;;;;;;;20.85;78.44;100472.88;5032153;28;20069;-66
2022/06/18 02:52:19;;;;;;;;;;;;;;;20.89;79.62;100480.75;5031803;28;20025;-69
2022/06/18 02:54:46;;;;;;;5.20;2.65;;;;;;;20.62;79.24;100482.56;5032446;28;19913;-67
2022/06/18 02:57:26;;;;;;;6.65;2.83;;;;;;;20.10;78.00;100474.00;5032138;28;20033;-69
2022/06/18 02:59:52;;;;;;;6.25;2.78;;;;;;;19.94;79.24;100456.56;5032253;28;20108;-66
2022/06/18 03:02:17;;;;;;;5.75;3.03;;;;;;;19.99;80.85;100488.91;5032238;28;20108;-67
2022/06/18 03:04:43;;;;;;;6.90;3.15;;;;;;;19.92;81.87;100501.09;5032104;28;20027;-71
2022/06/18 03:07:08;;;;;;;6.93;3.33;;;;;;;20.05;83.02;100494.13;5031759;28;20038;-66
2022/06/18 03:12:06;;;;;;;4.22;3.08;;;;;;;19.96;82.85;100499.34;5032071;28;20547;-68
2022/06/18 03:12:19;;;;;;;4.10;2.80;;;;;;;19.94;82.10;100488.88;5031927;28;20121;-66
2022/06/18 03:14:45;;;;;;;4.40;3.05;;;;;;;19.91;83.30;100495.88;5032305;28;20571;-66
2022/06/18 03:17:11;;;;;;;5.70;3.10;;;;;;;20.13;82.67;100501.97;5032265;28;20029;-66
2022/06/18 03:19:44;;;;;;;8.18;3.17;;;;;;;20.33;83.62;100507.16;5031405;28;20092;-66
2022/06/18 03:22:13;;;;;;;6.05;3.20;;;;;;;20.45;82.86;100504.50;5031986;28;20033;-68
2022/06/18 03:24:40;;;;;;;6.90;3.10;;;;;;;20.51;81.67;100501.84;4964775;28;20228;-69
2022/06/18 03:27:07;;;;;;;7.93;3.58;;;;;;;20.55;81.26;100502.72;5031771;28;20022;-69
2022/06/18 03:29:33;;;;;;;6.75;3.08;;;;;;;20.65;82.49;100509.66;5013766;28;20519;-69
2022/06/18 03:32:00;;;;;;;10.95;4.25;;;;;;;20.40;85.60;100510.63;5030965;28;20043;-70
2022/06/18 03:34:26;;;;;;;10.75;4.38;;;;;;;20.40;85.89;100502.75;5031590;28;20061;-67
2022/06/18 03:36:51;;;;;;;6.10;4.25;;;;;;;20.35;87.47;100510.66;5031549;28;20064;-66
2022/06/18 03:39:17;;;;;;;7.82;4.53;;;;;;;20.40;87.54;100510.63;5031301;28;20029;-68
2022/06/18 03:41:42;;;;;;;8.30;4.55;;;;;;;20.37;87.91;100503.63;5031726;28;20029;-66
2022/06/18 03:44:08;;;;;;;8.10;4.72;;;;;;;20.26;88.06;100519.41;5031511;28;20033;-67
2022/06/18 03:46:36;;;;;;;6.32;4.75;;;;;;;20.27;87.71;100517.66;4979838;28;20067;-68
2022/06/18 03:49:06;;;;;;;9.25;4.03;;;;;;;20.33;87.34;100525.50;5031675;28;20116;-66
2022/06/18 03:51:33;;;;;;;9.45;3.85;;;;;;;20.39;86.98;100516.75;5031376;28;20017;-66
2022/06/18 03:54:00;;;;;;;12.80;3.47;;;;;;;20.41;85.06;100518.50;5051051;28;20025;-67
2022/06/18 03:56:30;;;;;;;7.53;3.13;;;;;;;20.43;84.68;100514.09;5051312;28;20025;-71
2022/06/18 03:58:56;;;;;;;8.15;3.60;;;;;;;20.52;83.79;100521.06;5051005;28;20036;-67
2022/06/18 04:01:26;;;;;;;5.10;3.03;;;;;;;20.60;83.93;100524.56;5050724;28;20033;-67
2022/06/18 04:03:52;;;;;;;5.35;2.83;;;;;;;20.59;84.32;100516.69;5032130;28;20037;-69
2022/06/18 04:06:18;;;;;;;6.30;3.10;;;;;;;20.62;84.11;100520.19;5050883;28;20407;-70
2022/06/18 04:08:44;;;;;;;6.70;3.40;;;;;;;20.65;84.09;100516.69;5050792;28;20021;-68
2022/06/18 04:11:11;;;;;;;5.75;3.30;;;;;;;20.65;84.22;100506.19;5051009;28;20036;-69
2022/06/18 04:13:37;;;;;;;6.50;3.40;;;;;;;20.58;82.81;100491.34;5050568;28;20025;-69
2022/06/18 04:16:02;;;;;;;10.90;3.63;;;;;;;20.73;82.27;100511.44;5051046;28;20108;-66
2022/06/18 04:18:28;;;;;;;20.50;3.83;;;;;;;20.68;81.78;100486.03;5050747;28;20024;-66
2022/06/18 04:20:54;;;;;;;15.13;3.88;;;;;;;20.76;81.48;100514.91;5051023;28;20036;-66
2022/06/18 04:23:20;;;;;;;10.82;3.85;;;;;;;20.77;81.82;100516.66;5050516;28;20041;-71
2022/06/18 04:25:45;;;;;;;14.50;4.43;;;;;;;20.67;81.28;100514.91;5050872;28;20859;-69
2022/06/18 04:28:13;;;;;;;13.30;3.80;;;;;;;20.65;81.75;100512.28;5050990;28;20391;-68
2022/06/18 04:30:39;;;;;;;9.90;4.25;;;;;;;20.74;82.63;100506.16;5050495;28;20071;-70
2022/06/18 04:33:05;;;;;;;14.85;3.85;;;;;;;20.67;82.44;100509.66;5050539;28;20095;-67
2022/06/18 04:35:30;;;;;;;11.48;4.00;;;;;;;20.68;82.61;100512.25;5050379;28;20029;-70
2022/06/18 04:37:56;;;;;;;14.88;4.30;;;;;;;20.74;83.27;100505.31;5050367;28;20502;-67
2022/06/18 04:40:31;;;;;;;11.98;4.18;;;;;;;20.72;82.77;100492.16;5040506;28;20072;-68
2022/06/18 04:43:01;;;;;;;11.13;4.28;;;;;;;20.85;83.47;100520.09;5030015;28;20491;-68
2022/06/18 04:45:27;;;;;;;14.15;4.70;;;;;;;21.03;82.85;100534.00;5030510;28;20029;-67
2022/06/18 04:47:53;;;;;;;13.20;4.10;;;;;;;21.03;83.30;100534.00;5030516;28;20034;-70
2022/06/18 04:50:21;;;;;;;13.15;4.25;;;;;;;21.07;85.05;100535.75;5030557;28;20076;-67
2022/06/18 04:52:47;;;;;;;13.90;4.13;;;;;;;21.11;81.19;100537.47;5030534;28;20030;-67
2022/06/18 04:55:13;;;;;;;8.48;3.70;;;;;;;21.10;80.55;100516.50;5030170;28;20025;-69
2022/06/18 04:57:38;;;;;;;5.70;3.50;;;;;;;21.28;81.17;100534.78;5029933;28;20140;-68
2022/06/18 05:00:07;;;;;;;13.00;4.13;;;;;;;21.36;79.38;100537.34;5030013;28;20044;-67
2022/06/18 05:02:33;;;;;;;9.18;3.53;;;;;;;21.34;79.08;100534.69;5030472;28;20056;-67
2022/06/18 05:04:59;;;;;;;6.82;3.40;;;;;;;21.37;78.77;100540.81;5030369;28;20034;-70
2022/06/18 05:07:25;;;;;;;8.35;3.95;;;;;;;21.46;78.77;100541.63;5030197;28;20030;-70
2022/06/18 05:09:50;;;;;;;6.90;3.80;;;;;;;21.49;78.63;100543.38;5012232;28;20037;-69
2022/06/18 05:12:16;;;;;;;11.23;3.78;;;;;;;21.61;78.33;100550.34;5030111;28;20033;-68
2022/06/18 05:14:42;;;;;;;13.15;4.03;;;;;;;21.61;79.92;100547.72;5034038;28;20405;-68
2022/06/18 05:17:17;;;;;;;11.70;4.40;;;;;;;21.16;80.61;100496.31;5036692;28;20084;-67
2022/06/18 05:19:44;;;;;;;14.15;5.00;;;;;;;21.33;82.85;100553.09;5036513;28;20029;-67
2022/06/18 05:22:09;;;;;;;12.73;4.65;;;;;;;21.33;81.76;100545.22;5036722;28;20090;-70
2022/06/18 05:24:35;;;;;;;12.52;4.43;;;;;;;21.40;81.37;100557.44;5036214;28;20050;-68
2022/06/18 05:27:01;;;;;;;10.57;4.63;;;;;;;21.48;81.21;100560.00;5036705;28;20033;-69
2022/06/18 05:29:27;;;;;;;11.40;4.30;;;;;;;21.40;80.15;100539.06;5036533;28;20063;-68
2022/06/18 05:31:53;;;;;;;7.10;4.10;;;;;;;21.48;79.58;100553.00;5036464;28;20120;-68
2022/06/18 12:33:04;;;;;;;3.97;2.67;;;;;;;26.65;58.66;100662.44;5068442;28;20054;-85
2022/06/18 12:35:43;;;;;;;;;;;;;;;26.36;60.53;100668.50;5074083;28;20032;-83
2022/06/18 12:38:53;;;;;;;4.10;3.00;;;;;;;26.10;60.17;100670.03;5070439;28;19963;-85
2022/06/18 12:41:38;;;;;;;5.05;3.17;;;;;;;25.91;62.81;100665.13;5050358;28;20037;-84
2022/06/18 12:44:24;;;;;;;11.55;3.67;;;;;;;26.02;61.09;100666.66;5025398;28;20574;-85
2022/06/18 12:47:09;;;;;;;7.03;3.28;;;;;;;26.15;64.14;100668.13;5028271;28;20041;-85
2022/06/18 12:49:59;;;;;;;5.03;3.33;;;;;;;26.41;61.00;100651.56;5026157;28;20030;-84
2022/06/18 12:52:33;;;;;;;15.95;5.65;;;;;;;26.34;60.22;100625.31;5027969;28;20025;-83
2022/06/18 12:55:25;;;;;;;8.48;3.58;;;;;;;26.52;60.01;100664.53;5027522;28;20088;-84
2022/06/18 12:58:26;;;;;;;7.18;3.53;;;;;;;26.24;61.66;100638.78;5018073;28;20046;-82
2022/06/18 13:01:15;;;;;;;5.38;3.20;;;;;;;26.45;61.93;100665.59;4941263;29;20126;-83
2022/06/18 13:03:59;;;;;;;7.90;4.53;;;;;;;26.37;59.52;100664.91;4942044;29;20036;-84
2022/06/18 13:06:48;;;;;;;17.52;15.77;;;;;;;26.22;60.20;100668.81;4941424;29;20102;-83
2022/06/18 13:09:40;;;;;;;40.17;36.55;;;;;;;26.08;59.87;100663.88;4942130;29;20039;-82
2022/06/18 13:12:26;;;;;;;36.90;20.92;;;;;;;25.98;59.71;100616.47;4892845;29;20044;-82
2022/06/18 13:15:28;;;;;;;32.45;30.27;;;;;;;26.10;58.36;100648.84;4893453;29;20055;-82
2022/06/18 13:18:05;;;;;;;33.42;30.67;;;;;;;26.06;59.26;100639.25;4864834;29;20078;-85
2022/06/18 13:20:45;;;;;;;21.42;19.02;;;;;;;25.08;59.99;100459.09;4875085;29;20029;-86
2022/06/18 13:29:17;;;;;;;16.90;15.43;;;;;;;26.41;61.38;100611.88;4873893;29;20112;-83
2022/06/18 13:32:28;;;;;;;14.82;13.48;;;;;;;26.98;60.19;100640.38;4874009;29;20048;-82
2022/06/18 13:35:12;;;;;;;22.20;21.00;;;;;;;27.05;59.29;100634.84;4819824;29;20049;-81
2022/06/18 13:37:52;;;;;;;22.75;21.30;;;;;;;26.99;58.68;100632.38;4869938;29;20500;-81
2022/06/18 13:40:36;;;;;;;34.50;32.45;;;;;;;26.93;58.72;100633.44;4859223;29;20127;-85
2022/06/18 13:43:23;;;;;;;47.83;45.47;;;;;;;27.01;58.73;100635.00;4858639;29;20057;-85
2022/06/18 13:46:13;;;;;;;21.52;20.33;;;;;;;26.93;57.93;100638.72;4858288;29;20045;-81
2022/06/18 13:48:58;;;;;;;22.33;20.85;;;;;;;26.97;58.32;100639.50;4855686;29;20049;-81
2022/06/18 13:51:33;;;;;;;20.48;18.92;;;;;;;26.69;58.29;100634.94;4857205;29;20054;-81
2022/06/18 13:54:07;;;;;;;23.17;21.42;;;;;;;26.69;57.37;100639.38;4877250;29;20478;-82
2022/06/18 13:56:34;;;;;;;46.25;23.77;;;;;;;26.53;60.22;100649.50;4933179;29;20032;-81
2022/06/18 13:59:01;;;;;;;13.98;11.95;;;;;;;26.38;57.63;100645.50;4934032;29;20098;-80
2022/06/18 14:01:31;;;;;;;14.75;10.63;;;;;;;26.15;58.00;100600.19;4932887;29;20245;-88
2022/06/18 14:03:59;;;;;;;;;;;;;;;26.30;59.96;100654.50;4917597;29;20123;-85
2022/06/18 14:06:26;;;;;;;29.88;10.43;;;;;;;26.04;58.30;100638.38;4933429;29;19914;-89
2022/06/18 14:08:58;;;;;;;29.20;14.43;;;;;;;26.04;58.76;100641.88;4996778;28;20120;-88
2022/06/18 14:11:37;;;;;;;32.30;12.07;;;;;;;26.02;58.20;100656.94;5035727;28;20028;-86
2022/06/18 14:14:04;;;;;;;;;;;;;;;25.88;59.87;100636.09;5064607;28;20056;-85
2022/06/18 14:16:36;;;;;;;13.63;12.00;;;;;;;25.43;60.62;100567.56;5073286;28;20488;-87
2022/06/18 14:19:27;;;;;;;13.02;11.73;;;;;;;25.90;60.65;100652.81;5073254;28;20157;-90
2022/06/18 14:22:16;;;;;;;26.83;10.85;;;;;;;25.75;62.05;100629.38;5059434;28;20178;-88
2022/06/18 14:24:47;;;;;;;18.70;16.87;;;;;;;25.86;59.91;100653.78;5053126;28;20059;-84
2022/06/18 14:27:27;;;;;;;29.17;16.38;;;;;;;25.34;59.60;100585.31;5033892;28;20021;-87
2022/06/18 14:29:54;;;;;;;17.17;15.55;;;;;;;25.36;59.22;100564.16;5053371;28;20036;-87
2022/06/18 14:32:51;;;;;;;16.70;13.82;;;;;;;25.85;60.69;100657.34;5056796;28;20503;-84
2022/06/18 14:35:43;;;;;;;14.88;12.52;;;;;;;25.73;60.79;100631.19;5033848;28;20075;-89
2022/06/18 14:38:09;;;;;;;15.57;11.43;;;;;;;25.64;60.17;100595.25;5050582;28;20458;-90
2022/06/18 14:43:55;;;;;;;10.43;7.85;;;;;;;25.91;60.92;100637.81;5050475;28;20132;-86
2022/06/18 14:46:47;;;;;;;16.63;15.05;;;;;;;25.81;60.01;100637.19;5049391;28;20043;-85
2022/06/18 14:49:46;;;;;;;10.45;9.55;;;;;;;25.03;61.48;100519.97;5050202;28;20072;-86
2022/06/18 14:52:38;;;;;;;9.27;6.45;;;;;;;25.65;60.68;100631.38;5030238;28;20099;-84
2022/06/18 14:55:29;;;;;;;17.77;15.23;;;;;;;25.24;60.32;100561.78;5025809;28;20052;-87
2022/06/18 14:58:19;;;;;;;11.68;10.43;;;;;;;25.65;61.76;100624.28;5024486;28;20116;-86
2022/06/18 15:01:19;;;;;;;9.82;8.65;;;;;;;25.67;62.34;100627.78;5029455;28;20032;-89
2022/06/18 15:03:55;;;;;;;10.32;5.97;;;;;;;25.37;61.42;100573.84;5028728;28;20041;-85
2022/06/18 15:06:21;;;;;;;9.25;8.35;;;;;;;25.43;62.00;100557.84;5023311;28;20037;-83
2022/06/18 15:08:58;;;;;;;15.93;9.90;;;;;;;25.66;60.67;100607.53;5049834;28;20029;-88
2022/06/18 15:11:26;;;;;;;10.23;8.50;;;;;;;25.83;61.30;100622.13;5057946;28;20036;-86
2022/06/18 15:13:53;;;;;;;10.60;9.52;;;;;;;25.59;62.75;100608.56;5072351;28;20051;-88
2022/06/18 15:26:49;;;;;;;9.40;8.05;;;;;;;25.44;63.10;100615.06;5071899;28;20055;-89
2022/06/18 15:29:18;;;;;;;7.30;6.60;;;;;;;25.17;61.64;100574.25;5054197;28;20442;-87
2022/06/18 15:31:44;;;;;;;11.65;10.75;;;;;;;25.24;63.14;100575.00;5051461;28;20056;-87
2022/06/18 15:34:30;;;;;;;12.25;11.35;;;;;;;25.63;62.40;100625.25;5051504;28;20029;-90
2022/06/18 15:37:18;;;;;;;10.90;5.85;;;;;;;25.66;60.43;100638.41;5033466;28;20101;-88
2022/06/18 15:39:56;;;;;;;8.18;6.75;;;;;;;25.33;61.14;100580.97;5051814;28;20028;-90
2022/06/18 15:42:25;;;;;;;9.05;8.00;;;;;;;25.42;61.78;100577.25;5051163;28;20082;-87
2022/06/18 15:44:57;;;;;;;9.05;7.85;;;;;;;25.50;61.68;100640.53;5037681;28;20033;-83
2022/06/18 15:47:28;;;;;;;12.18;9.15;;;;;;;25.47;60.99;100611.50;5058236;28;20027;-80
2022/06/18 15:49:56;;;;;;;10.98;10.10;;;;;;;25.75;61.22;100639.97;5060106;28;20029;-81
2022/06/18 15:52:36;;;;;;;9.52;6.20;;;;;;;25.75;61.39;100640.81;5059588;28;20635;-79
2022/06/18 15:55:12;;;;;;;8.50;7.70;;;;;;;25.67;61.27;100651.59;5059238;28;20020;-81
2022/06/18 15:57:37;;;;;;;15.20;14.00;;;;;;;25.32;60.04;100604.75;5041382;28;20391;-84
2022/06/18 16:00:18;;;;;;;14.20;12.95;;;;;;;25.53;60.52;100640.44;5059865;28;20028;-81
2022/06/18 16:02:45;;;;;;;13.55;11.32;;;;;;;25.56;61.00;100642.13;5053829;28;20028;-83
2022/06/18 16:05:13;;;;;;;18.70;13.27;;;;;;;25.01;59.52;100566.66;5061472;28;20040;-85
2022/06/18 16:07:55;;;;;;;18.30;16.48;;;;;;;25.39;58.42;100647.81;5070118;28;20027;-85
2022/06/18 16:10:43;;;;;;;28.35;13.82;;;;;;;25.35;58.85;100653.13;5058264;28;20064;-85
2022/06/18 16:13:23;;;;;;;34.85;29.35;;;;;;;25.19;56.52;100649.06;5057848;28;20021;-86
2022/06/18 16:15:55;;;;;;;36.47;28.38;;;;;;;25.22;58.00;100649.00;5055903;28;20033;-85
2022/06/18 16:18:33;;;;;;;27.10;24.70;;;;;;;25.07;57.08;100602.63;5059878;28;20020;-89
2022/06/18 16:21:09;;;;;;;19.55;17.63;;;;;;;25.41;56.58;100631.03;5061829;28;20117;-84
2022/06/18 16:23:37;;;;;;;13.27;10.13;;;;;;;25.08;54.92;100608.81;5062420;28;20063;-85
2022/06/18 16:26:04;;;;;;;9.68;2.85;;;;;;;25.16;55.21;100622.69;5058618;28;20480;-87
2022/06/18 16:28:35;;;;;;;10.80;3.10;;;;;;;24.90;55.07;100575.72;5052590;28;20033;-86
2022/06/18 16:31:10;;;;;;;9.90;3.13;;;;;;;25.17;55.01;100641.19;5024868;28;20045;-88
2022/06/18 16:33:40;;;;;;;14.43;2.85;;;;;;;24.66;54.29;100556.84;5003616;28;20041;-83
2022/06/18 16:36:05;;;;;;;11.45;3.20;;;;;;;25.17;53.80;100633.25;5026829;28;20033;-85
2022/06/18 16:38:35;;;;;;;10.13;2.65;;;;;;;25.23;52.51;100641.97;5010288;28;20432;-83
2022/06/18 16:41:15;;;;;;;8.70;2.72;;;;;;;24.39;52.09;100472.03;5008466;28;20045;-87
2022/06/18 16:44:06;;;;;;;9.25;2.70;;;;;;;25.40;53.22;100633.72;4987622;28;20438;-86
2022/06/18 16:46:36;;;;;;;6.60;2.45;;;;;;;25.41;52.47;100633.66;4987086;28;20050;-83
2022/06/18 16:49:02;;;;;;;11.60;3.03;;;;;;;25.41;52.04;100644.25;4966641;28;20038;-83
2022/06/18 16:51:48;;;;;;;16.70;3.47;;;;;;;25.40;52.33;100645.13;4984670;28;20046;-81
2022/06/18 16:54:26;;;;;;;44.53;6.97;;;;;;;25.42;53.00;100647.75;4947957;28;20094;-82
2022/06/18 16:56:51;;;;;;;19.83;3.55;;;;;;;25.24;53.03;100601.44;4952375;28;20098;-84
2022/06/18 16:59:17;;;;;;;7.22;2.53;;;;;;;25.43;53.93;100634.47;4949476;28;20047;-84
2022/06/18 17:01:43;;;;;;;6.50;2.70;;;;;;;25.29;53.59;100604.84;4958504;28;20107;-80
2022/06/18 17:04:09;;;;;;;14.00;2.80;;;;;;;24.94;55.46;100532.50;4983679;28;20082;-78
2022/06/18 17:06:58;;;;;;;14.13;3.88;;;;;;;25.02;53.32;100571.06;4971156;28;20026;-78
2022/06/18 17:09:26;;;;;;;15.63;4.30;;;;;;;24.85;54.10;100568.75;4968165;28;20516;-78
2022/06/18 17:11:54;;;;;;;22.40;4.70;;;;;;;24.16;55.55;100461.91;4968393;28;20417;-78
2022/06/18 17:14:22;;;;;;;19.83;4.32;;;;;;;24.42;56.41;100489.56;4986268;28;20040;-79
2022/06/18 17:16:47;;;;;;;24.90;13.50;;;;;;;24.65;58.03;100553.34;5027533;28;20048;-78
2022/06/18 17:19:15;;;;;;;35.25;5.50;;;;;;;24.08;56.39;100446.25;5027132;28;20491;-78
2022/06/18 17:21:45;;;;;;;29.23;8.95;;;;;;;25.33;56.90;100656.72;5027317;28;20021;-80
2022/06/18 17:32:43;;;;;;;32.83;20.85;;;;;;;23.92;59.58;100464.13;5049810;28;20121;-77
2022/06/18 17:35:09;;;;;;;34.38;22.23;;;;;;;23.93;60.25;100463.22;5049664;28;20527;-77
2022/06/18 17:37:36;;;;;;;57.25;51.97;;;;;;;24.91;60.88;100647.00;5049957;28;20026;-80
2022/06/18 17:40:03;;;;;;;12.13;7.85;;;;;;;24.47;60.46;100569.50;5049391;28;20036;-79
2022/06/18 17:42:31;;;;;;;21.83;10.32;;;;;;;24.85;63.92;100647.13;5000597;28;20442;-78
2022/06/18 17:45:02;;;;;;;60.08;56.40;;;;;;;24.15;63.77;100536.66;5059068;28;20029;-80
2022/06/18 17:47:28;;;;;;;61.85;58.42;;;;;;;23.85;66.20;100480.91;5060002;28;20035;-79
2022/06/18 17:49:54;;;;;;;44.05;41.63;;;;;;;23.51;67.03;100439.34;5068287;28;20418;-79
2022/06/18 17:52:20;;;;;;;89.88;85.22;;;;;;;23.80;64.37;100511.75;5070321;28;20060;-78
2022/06/18 17:54:59;;;;;;;;;;;;;;;;;;;;;
2022/06/18 17:57:27;;;;;;;47.65;45.22;;;;;;;23.75;66.08;100549.63;5018722;28;20037;-80
2022/06/18 17:59:53;;;;;;;43.25;41.00;;;;;;;23.98;66.45;100589.72;5061202;28;20036;-80
2022/06/18 18:02:23;;;;;;;18.42;13.48;;;;;;;23.29;66.13;100468.69;5066137;28;20093;-79
2022/06/18 18:04:51;;;;;;;14.15;9.93;;;;;;;23.48;67.54;100521.94;5068195;28;20032;-80
2022/06/18 18:07:20;;;;;;;12.25;4.95;;;;;;;23.37;71.68;100493.13;5060082;28;20089;-80
2022/06/18 18:09:49;;;;;;;10.07;3.27;;;;;;;23.92;69.81;100588.03;5060922;28;20488;-80
2022/06/18 18:12:23;;;;;;;3.80;2.50;;;;;;;23.60;69.31;100541.94;5065030;28;20729;-81
2022/06/18 18:14:56;;;;;;;7.05;3.40;;;;;;;23.47;71.05;100516.72;5069362;28;20103;-81
2022/06/18 18:21:09;;;;;;;3.88;3.05;;;;;;;23.88;72.11;100644.34;4917101;29;20043;-80
2022/06/18 18:23:36;;;;;;;6.63;3.20;;;;;;;22.92;71.65;100487.63;4945252;29;20032;-80
2022/06/18 18:26:03;;;;;;;7.05;3.00;;;;;;;23.62;72.33;100621.00;4952730;29;20432;-83
2022/06/18 18:28:29;;;;;;;8.45;3.80;;;;;;;23.70;72.26;100656.91;4951396;29;20036;-80
2022/06/18 18:30:55;;;;;;;7.82;3.60;;;;;;;23.95;73.40;100692.59;4940831;29;20035;-84
2022/06/18 18:33:21;;;;;;;8.18;3.47;;;;;;;23.76;72.98;100679.66;4952688;28;20059;-82
2022/06/18 18:35:46;;;;;;;9.30;4.18;;;;;;;23.89;72.90;100707.59;4952424;29;20102;-80
2022/06/18 18:38:12;;;;;;;7.47;4.43;;;;;;;23.86;74.12;100701.47;4933876;29;20044;-76
2022/06/18 18:43:09;;;;;;;7.72;4.32;;;;;;;23.82;74.47;100705.94;5072619;27;20406;-80
2022/06/18 18:45:35;;;;;;;8.80;4.25;;;;;;;23.83;73.21;100720.00;5068436;28;20438;-82
2022/06/18 18:48:00;;;;;;;6.85;4.00;;;;;;;23.64;72.63;100711.44;5067527;28;20054;-80
2022/06/18 18:50:28;;;;;;;8.75;4.20;;;;;;;23.29;73.29;100674.16;5068032;28;20028;-79
2022/06/18 18:52:54;;;;;;;9.85;4.72;;;;;;;23.65;73.57;100729.00;5068752;28;20064;-80
2022/06/18 18:55:20;;;;;;;8.65;4.22;;;;;;;23.51;72.64;100729.19;5068109;28;20025;-80
2022/06/18 18:57:48;;;;;;;11.00;4.47;;;;;;;23.29;72.02;100731.22;5059694;28;20483;-82
2022/06/18 19:00:15;;;;;;;7.97;4.65;;;;;;;22.96;73.77;100710.47;5068091;28;20055;-80
2022/06/18 19:02:43;;;;;;;12.85;4.93;;;;;;;22.75;73.39;100682.59;5067200;28;20024;-78
2022/06/18 19:05:11;;;;;;;14.25;6.00;;;;;;;22.88;73.22;100730.72;5055882;28;20435;-80
2022/06/18 19:07:36;;;;;;;13.32;5.97;;;;;;;22.68;73.07;100697.59;5055408;28;20116;-85
2022/06/18 19:10:03;;;;;;;9.00;5.78;;;;;;;22.64;73.42;100706.38;5067693;28;20115;-82
2022/06/18 19:15:14;;;;;;;13.90;6.55;;;;;;;21.86;73.62;100681.53;5075094;28;20128;-82
2022/06/18 19:17:39;;;;;;;8.57;4.07;;;;;;;22.09;74.04;100747.13;5067142;28;20100;-81
2022/06/18 19:20:06;;;;;;;12.50;5.07;;;;;;;21.38;76.22;100700.16;5067201;28;20534;-81
2022/06/18 19:22:32;;;;;;;8.20;4.30;;;;;;;20.82;75.83;100611.97;5067121;28;20082;-81